Time;durP1;ratioP1;P1;durP2;ratioP2;P2;SDS_P1;SDS_P2;PMS_P1;PMS_P2;Temp;Humidity;BMP_temperature;BMP_pressure;BME280_temperature;BME280_humidity;BME280_pressure;Samples;Min_cycle;Max_cycle;Signal;HPM_P1;HPM_P2
2021/08/12 00:00:07;;;;;;;;;;;25.20;91.30;25.20;99721.00;;;;336722;28;83380;-89
2021/08/12 00:00:19;;;;;;;;;;;25.20;91.30;25.20;99719.00;;;;338031;28;92408;-91
2021/08/12 00:00:30;;;;;;;;;;;25.20;91.30;25.20;99719.00;;;;344572;28;82511;-90
2021/08/12 00:00:42;;;;;;;;;;;25.20;91.30;25.20;99725.00;;;;345609;28;90249;-90
2021/08/12 00:00:54;;;;;;;;;;;25.20;91.30;25.20;99717.00;;;;339483;28;84709;-89
2021/08/12 00:01:07;;;;;;;;;;;25.20;91.30;25.10;99719.00;;;;336945;28;90688;-89
2021/08/12 00:01:19;;;;;;;;;;;25.20;91.60;25.10;99716.00;;;;337647;28;83421;-90
2021/08/12 00:01:31;;;;;;;;;;;25.20;91.50;25.10;99713.00;;;;344178;28;91312;-90
2021/08/12 00:01:43;;;;;;;;;;;25.20;91.30;25.10;99719.00;;;;344375;28;83417;-90
2021/08/12 00:01:55;;;;;;;;;;;25.20;91.30;25.10;99721.00;;;;344218;28;90367;-90
2021/08/12 00:02:07;;;;;;;;;;;25.10;91.20;25.10;99717.00;;;;346098;28;83369;-90
2021/08/12 00:02:24;;;;;;;;;;;25.20;91.40;25.10;99717.00;;;;342796;28;88703;-90
2021/08/12 00:02:36;;;;;;;;;;;25.20;91.40;25.10;99714.00;;;;345639;28;83499;-89
2021/08/12 00:02:48;;;;;;;;;;;25.10;91.50;25.00;99721.00;;;;335905;29;91758;-90
2021/08/12 00:03:00;;;;;;;;;;;25.10;91.60;25.10;99722.00;;;;343183;28;83277;-90
2021/08/12 00:03:13;;;;;;;;;;;25.10;91.50;25.10;99707.00;;;;347007;27;90874;-90
2021/08/12 00:03:25;;;;;;;;;;;25.10;91.30;25.10;99715.00;;;;345376;28;83301;-90
2021/08/12 00:03:37;;;;;;;;;;;25.10;91.30;25.00;99715.00;;;;346021;28;91699;-90
2021/08/12 00:03:49;;;;;;;;;;;25.10;91.30;25.10;99713.00;;;;337731;28;82557;-90
2021/08/12 00:04:01;;;;;;;;;;;25.10;91.30;25.10;99719.00;;;;337290;28;90173;-89
2021/08/12 00:04:17;;;;;;;;;;;25.10;91.20;25.10;99708.00;;;;345908;28;83571;-89
2021/08/12 00:04:31;;;;;;;;;;;25.10;91.20;25.00;99711.00;;;;345313;28;91085;-88
2021/08/12 00:04:43;;;;;;;;;;;25.10;91.50;25.10;99715.00;;;;344464;28;82548;-89
2021/08/12 00:04:54;;;;;;;;;;;25.10;91.40;25.10;99717.00;;;;345609;28;90996;-89
2021/08/12 00:05:07;;;;;;;;;;;25.10;91.40;25.10;99710.00;;;;338919;28;82637;-89
2021/08/12 00:05:19;;;;;;;;;;;25.10;91.30;25.00;99712.00;;;;346982;28;90544;-90
2021/08/12 00:05:31;;;;;;;;;;;25.00;91.50;24.90;99711.00;;;;344636;28;83369;-90
2021/08/12 00:05:43;;;;;;;;;;;25.10;91.60;24.90;99704.00;;;;337155;28;92210;-90
2021/08/12 00:05:54;;;;;;;;;;;25.10;91.60;25.00;99702.00;;;;345835;28;83457;-89
2021/08/12 00:06:06;;;;;;;;;;;25.10;91.70;25.00;99710.00;;;;346399;28;92160;-89
2021/08/12 00:06:18;;;;;;;;;;;25.10;91.70;25.00;99709.00;;;;338244;28;82570;-90
2021/08/12 00:06:30;;;;;;;;;;;25.00;91.60;25.00;99709.00;;;;338579;28;91925;-90
2021/08/12 00:06:42;;;;;;;;;;;25.10;91.70;25.00;99709.00;;;;344526;28;82700;-89
2021/08/12 00:06:53;;;;;;;;;;;25.00;91.80;25.00;99712.00;;;;344129;28;92430;-89
2021/08/12 00:07:05;;;;;;;;;;;25.00;91.60;25.00;99705.00;;;;336343;28;82514;-89
2021/08/12 00:07:17;;;;;;;;;;;25.00;91.60;25.00;99710.00;;;;336307;28;91375;-91
2021/08/12 00:07:29;;;;;;;;;;;25.00;91.50;25.00;99708.00;;;;344181;28;85034;-90
2021/08/12 00:07:41;;;;;;;;;;;25.00;91.70;25.00;99713.00;;;;346905;28;91880;-90
2021/08/12 00:07:52;;;;;;;;;;;25.00;91.70;25.00;99712.00;;;;338933;28;83515;-89
2021/08/12 00:08:05;;;;;;;;;;;25.00;91.70;25.00;99707.00;;;;345556;28;91331;-89
2021/08/12 00:08:17;;;;;;;;;;;25.00;91.80;25.00;99709.00;;;;344560;28;82487;-91
2021/08/12 00:08:29;;;;;;;;;;;25.00;91.90;25.00;99707.00;;;;338545;28;92478;-90
2021/08/12 00:08:40;;;;;;;;;;;25.00;91.70;24.90;99701.00;;;;337648;28;83458;-89
2021/08/12 00:08:53;;;;;;;;;;;25.00;92.00;25.00;99706.00;;;;338582;28;91690;-90
2021/08/12 00:09:05;;;;;;;;;;;25.00;91.90;25.00;99707.00;;;;347046;28;82566;-90
2021/08/12 00:09:17;;;;;;;;;;;25.00;91.80;25.00;99704.00;;;;346405;28;90721;-90
2021/08/12 00:09:28;;;;;;;;;;;25.00;92.00;25.00;99708.00;;;;345986;28;82576;-90
2021/08/12 00:09:40;;;;;;;;;;;25.00;91.90;25.00;99703.00;;;;345308;28;91385;-90
2021/08/12 00:09:52;;;;;;;;;;;25.00;91.90;24.90;99705.00;;;;337689;28;82587;-90
2021/08/12 00:10:04;;;;;;;;;;;25.00;92.00;24.90;99704.00;;;;345645;28;90539;-89
2021/08/12 00:10:16;;;;;;;;;;;25.00;92.10;24.90;99702.00;;;;343221;28;82505;-90
2021/08/12 00:10:28;;;;;;;;;;;25.00;92.00;24.90;99699.00;;;;344148;28;92500;-91
2021/08/12 00:10:40;;;;;;;;;;;25.00;92.00;24.90;99704.00;;;;343209;28;83259;-91
2021/08/12 00:10:52;;;;;;;;;;;25.00;92.20;24.90;99704.00;;;;334064;28;91581;-92
2021/08/12 00:11:04;;;;;;;;;;;24.90;92.10;24.80;99700.00;;;;344538;28;83441;-89
2021/08/12 00:11:16;;;;;;;;;;;24.90;92.20;24.90;99711.00;;;;345379;28;91455;-89
2021/08/12 00:11:28;;;;;;;;;;;24.90;92.00;24.90;99703.00;;;;343210;28;82496;-90
2021/08/12 00:11:40;;;;;;;;;;;24.90;92.00;24.90;99705.00;;;;345502;28;91127;-90
2021/08/12 00:11:52;;;;;;;;;;;24.90;91.90;24.90;99697.00;;;;344546;28;83397;-89
2021/08/12 00:12:04;;;;;;;;;;;24.90;92.00;24.90;99701.00;;;;345450;28;89853;-89
2021/08/12 00:12:16;;;;;;;;;;;24.90;91.90;24.90;99701.00;;;;346571;28;82567;-89
2021/08/12 00:12:28;;;;;;;;;;;24.90;91.90;24.90;99699.00;;;;337291;28;91297;-89
2021/08/12 00:12:39;;;;;;;;;;;24.90;91.90;24.90;99704.00;;;;345853;28;83563;-90
2021/08/12 00:12:51;;;;;;;;;;;24.90;91.90;25.00;99701.00;;;;345553;28;91457;-90
2021/08/12 00:13:04;;;;;;;;;;;24.90;92.00;24.90;99706.00;;;;340344;28;83360;-89
2021/08/12 00:13:19;;;;;;;;;;;24.90;92.40;24.90;99705.00;;;;345428;28;91786;-88
2021/08/12 00:13:31;;;;;;;;;;;24.90;92.40;24.90;99701.00;;;;346009;28;83401;-90
2021/08/12 00:13:43;;;;;;;;;;;24.90;92.30;24.90;99704.00;;;;335807;29;90489;-90
2021/08/12 00:13:55;;;;;;;;;;;24.90;92.20;24.90;99701.00;;;;343104;28;83461;-90
2021/08/12 00:14:07;;;;;;;;;;;24.90;92.10;24.90;99696.00;;;;344012;28;91758;-90
2021/08/12 00:14:20;;;;;;;;;;;24.90;92.10;24.90;99697.00;;;;345994;28;83404;-90
2021/08/12 00:14:32;;;;;;;;;;;24.90;92.20;24.80;99701.00;;;;344085;28;92478;-89
2021/08/12 00:14:44;;;;;;;;;;;24.90;92.30;24.80;99705.00;;;;336383;28;83362;-90
2021/08/12 00:14:56;;;;;;;;;;;24.90;92.10;24.80;99695.00;;;;343988;28;89224;-90
2021/08/12 00:15:08;;;;;;;;;;;24.90;92.10;24.80;99700.00;;;;344382;28;83646;-90
2021/08/12 00:15:20;;;;;;;;;;;24.90;92.30;24.80;99700.00;;;;343967;28;88781;-89
2021/08/12 00:15:32;;;;;;;;;;;24.90;92.40;24.80;99704.00;;;;338931;28;82482;-91
2021/08/12 00:15:44;;;;;;;;;;;24.90;92.40;24.80;99697.00;;;;342610;28;91599;-89
2021/08/12 00:15:56;;;;;;;;;;;24.80;92.30;24.80;99698.00;;;;345995;28;82627;-90
2021/08/12 00:16:08;;;;;;;;;;;24.90;92.20;24.80;99702.00;;;;345418;28;91341;-91
2021/08/12 00:16:20;;;;;;;;;;;24.80;92.10;24.80;99702.00;;;;343196;28;83146;-90
2021/08/12 00:16:34;;;;;;;;;;;24.80;92.10;24.80;99699.00;;;;335866;29;91989;-90
2021/08/12 00:16:46;;;;;;;;;;;24.90;92.20;24.80;99701.00;;;;343170;28;83454;-90
2021/08/12 00:16:58;;;;;;;;;;;24.80;92.20;24.80;99702.00;;;;344126;28;91326;-89
2021/08/12 00:17:10;;;;;;;;;;;24.80;92.00;24.80;99698.00;;;;337610;28;82604;-91
2021/08/12 00:17:22;;;;;;;;;;;24.80;92.10;24.80;99700.00;;;;345560;28;90939;-90
2021/08/12 00:17:33;;;;;;;;;;;24.80;92.20;24.80;99704.00;;;;343948;28;83530;-92
2021/08/12 00:17:45;;;;;;;;;;;24.80;92.30;24.80;99701.00;;;;337211;28;91459;-90
2021/08/12 00:17:57;;;;;;;;;;;24.80;92.30;24.80;99703.00;;;;338982;28;83431;-90
2021/08/12 00:18:09;;;;;;;;;;;24.80;92.40;24.80;99695.00;;;;347274;27;90518;-89
2021/08/12 00:18:21;;;;;;;;;;;24.80;92.50;24.70;99700.00;;;;345099;28;83362;-90
2021/08/12 00:18:33;;;;;;;;;;;24.80;92.70;24.70;99707.00;;;;337158;28;92730;-90
2021/08/12 00:18:44;;;;;;;;;;;24.80;92.70;24.70;99701.00;;;;346010;28;83406;-90
2021/08/12 00:18:56;;;;;;;;;;;24.80;92.50;24.80;99707.00;;;;344107;28;91265;-90
2021/08/12 00:19:14;;;;;;;;;;;24.80;92.30;24.80;99704.00;;;;337605;28;82601;-89
2021/08/12 00:19:25;;;;;;;;;;;24.80;92.20;24.70;99697.00;;;;338617;28;91862;-89
2021/08/12 00:19:37;;;;;;;;;;;24.80;92.40;24.80;99700.00;;;;336357;29;83361;-90
2021/08/12 00:19:49;;;;;;;;;;;24.80;92.20;24.80;99703.00;;;;336027;28;90454;-90
2021/08/12 00:20:01;;;;;;;;;;;24.80;92.30;24.80;99697.00;;;;336384;29;83460;-89
2021/08/12 00:20:13;;;;;;;;;;;24.80;92.20;24.80;99701.00;;;;338710;28;91574;-89
2021/08/12 00:20:24;;;;;;;;;;;24.80;92.30;24.70;99704.00;;;;338723;28;82605;-89
2021/08/12 00:20:36;;;;;;;;;;;24.80;92.70;24.70;99705.00;;;;338317;28;92572;-92
2021/08/12 00:20:48;;;;;;;;;;;24.80;92.80;24.70;99698.00;;;;337652;28;83403;-90
2021/08/12 00:21:00;;;;;;;;;;;24.80;92.50;24.70;99699.00;;;;338245;28;91869;-89
2021/08/12 00:21:12;;;;;;;;;;;24.80;92.50;24.70;99698.00;;;;337695;28;82593;-90
2021/08/12 00:21:24;;;;;;;;;;;24.80;92.70;24.70;99697.00;;;;342860;28;91241;-90
2021/08/12 00:21:36;;;;;;;;;;;24.80;92.60;24.70;99700.00;;;;344199;28;83365;-92
2021/08/12 00:21:48;;;;;;;;;;;24.80;92.40;24.80;99697.00;;;;345532;28;91232;-90
2021/08/12 00:22:00;;;;;;;;;;;24.80;92.50;24.80;99700.00;;;;346023;28;83471;-90
2021/08/12 00:22:11;;;;;;;;;;;24.80;92.60;24.80;99697.00;;;;340043;28;91418;-90
2021/08/12 00:22:23;;;;;;;;;;;24.80;92.50;24.80;99699.00;;;;346008;28;83434;-90
2021/08/12 00:22:35;;;;;;;;;;;24.80;92.60;24.80;99696.00;;;;337328;28;91795;-90
2021/08/12 00:22:47;;;;;;;;;;;24.80;92.50;24.80;99694.00;;;;343190;28;83408;-90
2021/08/12 00:22:59;;;;;;;;;;;24.80;92.50;24.80;99697.00;;;;345443;28;91948;-91
2021/08/12 00:23:11;;;;;;;;;;;24.80;92.60;24.70;99695.00;;;;337646;28;83461;-90
2021/08/12 00:23:23;;;;;;;;;;;24.80;92.70;24.70;99693.00;;;;344237;28;90457;-90
2021/08/12 00:23:35;;;;;;;;;;;24.80;92.90;24.60;99698.00;;;;344597;28;83471;-90
2021/08/12 00:23:47;;;;;;;;;;;24.80;92.90;24.60;99697.00;;;;344093;28;91279;-90
2021/08/12 00:23:59;;;;;;;;;;;24.80;92.90;24.60;99695.00;;;;337437;28;83472;-90
2021/08/12 00:24:11;;;;;;;;;;;24.70;92.80;24.60;99691.00;;;;337431;28;91751;-90
2021/08/12 00:24:23;;;;;;;;;;;24.70;92.80;24.70;99698.00;;;;346259;28;83656;-90
2021/08/12 00:24:35;;;;;;;;;;;24.70;92.70;24.70;99693.00;;;;345378;28;92936;-89
2021/08/12 00:24:46;;;;;;;;;;;24.70;92.60;24.70;99696.00;;;;344643;28;83392;-89
2021/08/12 00:24:58;;;;;;;;;;;24.70;92.60;24.70;99700.00;;;;345526;28;90471;-89
2021/08/12 00:25:10;;;;;;;;;;;24.70;92.50;24.70;99688.00;;;;338775;28;83475;-89
2021/08/12 00:25:22;;;;;;;;;;;24.70;92.40;24.70;99691.00;;;;339816;28;91843;-90
2021/08/12 00:25:34;;;;;;;;;;;24.70;92.50;24.60;99702.00;;;;337705;28;83451;-90
2021/08/12 00:25:46;;;;;;;;;;;24.70;92.70;24.60;99699.00;;;;339864;28;90672;-90
2021/08/12 00:25:58;;;;;;;;;;;24.70;92.80;24.60;99706.00;;;;340313;28;83434;-90
2021/08/12 00:26:09;;;;;;;;;;;24.70;92.80;24.60;99695.00;;;;339913;28;90369;-91
2021/08/12 00:26:21;;;;;;;;;;;24.70;92.70;24.60;99697.00;;;;337713;28;83493;-89
2021/08/12 00:26:33;;;;;;;;;;;24.70;92.60;24.60;99697.00;;;;338552;28;91250;-90
2021/08/12 00:26:45;;;;;;;;;;;24.70;92.80;24.60;99696.00;;;;337711;28;83483;-89
2021/08/12 00:26:58;;;;;;;;;;;24.70;92.80;24.60;99700.00;;;;338498;28;91246;-92
2021/08/12 00:27:10;;;;;;;;;;;24.70;92.80;24.60;99703.00;;;;337556;28;83624;-89
2021/08/12 00:27:21;;;;;;;;;;;24.70;92.80;24.60;99693.00;;;;346596;27;91438;-90
2021/08/12 00:27:33;;;;;;;;;;;24.70;92.80;24.60;99701.00;;;;344596;28;83465;-90
2021/08/12 00:27:45;;;;;;;;;;;24.70;92.90;24.60;99696.00;;;;338214;28;90925;-92
2021/08/12 00:27:57;;;;;;;;;;;24.70;92.90;24.60;99693.00;;;;340288;28;83367;-90
2021/08/12 00:28:09;;;;;;;;;;;24.70;92.80;24.60;99700.00;;;;339983;28;90191;-90
2021/08/12 00:28:21;;;;;;;;;;;24.70;92.90;24.60;99702.00;;;;344546;28;83391;-89
2021/08/12 00:28:32;;;;;;;;;;;24.70;92.90;24.60;99697.00;;;;345478;28;92753;-89
2021/08/12 00:28:44;;;;;;;;;;;24.70;92.70;24.60;99701.00;;;;339074;28;83370;-90
2021/08/12 00:28:56;;;;;;;;;;;24.70;92.60;24.60;99700.00;;;;337164;28;91092;-89
2021/08/12 00:29:08;;;;;;;;;;;24.60;92.60;24.60;99703.00;;;;337590;28;83539;-91
2021/08/12 00:29:20;;;;;;;;;;;24.70;92.60;24.60;99696.00;;;;346793;28;92052;-89
2021/08/12 00:29:32;;;;;;;;;;;24.70;92.60;24.60;99694.00;;;;344619;28;82520;-90
2021/08/12 00:29:44;;;;;;;;;;;24.70;92.60;24.60;99696.00;;;;339838;28;91723;-90
2021/08/12 00:29:55;;;;;;;;;;;24.60;92.70;24.70;99696.00;;;;345989;28;83418;-90
2021/08/12 00:30:08;;;;;;;;;;;24.70;92.60;24.70;99695.00;;;;345445;28;91753;-90
2021/08/12 00:30:20;;;;;;;;;;;24.70;92.70;24.60;99698.00;;;;336866;28;83513;-90
2021/08/12 00:30:31;;;;;;;;;;;24.60;92.60;24.60;99697.00;;;;349708;27;91073;-90
2021/08/12 00:30:43;;;;;;;;;;;24.60;92.90;24.70;99695.00;;;;344657;28;82490;-89
2021/08/12 00:30:55;;;;;;;;;;;24.60;92.80;24.80;99697.00;;;;335901;29;90918;-90
2021/08/12 00:31:07;;;;;;;;;;;24.60;92.90;24.80;99696.00;;;;336603;28;82543;-89
2021/08/12 00:31:19;;;;;;;;;;;24.70;93.00;24.70;99699.00;;;;335883;28;91126;-89
2021/08/12 00:31:32;;;;;;;;;;;24.60;93.00;24.70;99701.00;;;;337688;28;82568;-90
2021/08/12 00:31:45;;;;;;;;;;;24.60;93.10;24.60;99688.00;;;;337146;28;91685;-89
2021/08/12 00:31:56;;;;;;;;;;;24.70;92.90;24.60;99699.00;;;;337769;28;82496;-89
2021/08/12 00:32:08;;;;;;;;;;;24.70;93.00;24.70;99691.00;;;;337210;28;92412;-89
2021/08/12 00:32:20;;;;;;;;;;;24.60;93.00;24.70;99692.00;;;;337662;28;83291;-89
2021/08/12 00:32:32;;;;;;;;;;;24.60;92.80;24.70;99692.00;;;;337033;28;92513;-89
2021/08/12 00:32:44;;;;;;;;;;;24.70;92.80;24.70;99692.00;;;;337712;28;83299;-90
2021/08/12 00:32:56;;;;;;;;;;;24.60;92.80;24.60;99697.00;;;;338365;28;90487;-89
2021/08/12 00:33:07;;;;;;;;;;;24.60;93.20;24.60;99696.00;;;;338116;28;83639;-89
2021/08/12 00:33:19;;;;;;;;;;;24.70;93.10;24.50;99695.00;;;;344820;28;92051;-90
2021/08/12 00:33:33;;;;;;;;;;;24.60;93.20;24.60;99690.00;;;;347320;28;83468;-89
2021/08/12 00:33:45;;;;;;;;;;;24.60;93.20;24.60;99694.00;;;;338546;28;90111;-89
2021/08/12 00:33:57;;;;;;;;;;;24.60;93.00;24.60;99696.00;;;;336375;29;83387;-90
2021/08/12 00:34:09;;;;;;;;;;;24.60;93.00;24.50;99689.00;;;;337699;28;91296;-90
2021/08/12 00:34:21;;;;;;;;;;;24.60;93.20;24.60;99697.00;;;;337632;28;83351;-89
2021/08/12 00:34:33;;;;;;;;;;;24.60;93.10;24.60;99693.00;;;;337278;28;91088;-89
2021/08/12 00:34:45;;;;;;;;;;;24.60;93.00;24.50;99704.00;;;;337785;28;83378;-90
2021/08/12 00:34:56;;;;;;;;;;;24.60;93.30;24.50;99696.00;;;;337030;28;90755;-91
2021/08/12 00:35:09;;;;;;;;;;;24.60;93.30;24.50;99692.00;;;;336207;28;83506;-90
2021/08/12 00:35:21;;;;;;;;;;;24.60;93.30;24.50;99691.00;;;;337229;28;91594;-89
2021/08/12 00:35:33;;;;;;;;;;;24.60;93.30;24.50;99696.00;;;;337577;28;83469;-90
2021/08/12 00:35:44;;;;;;;;;;;24.60;93.30;24.50;99691.00;;;;338466;28;89164;-91
2021/08/12 00:35:56;;;;;;;;;;;24.60;93.20;24.50;99696.00;;;;338873;28;83258;-90
2021/08/12 00:36:08;;;;;;;;;;;24.60;93.30;24.50;99696.00;;;;338351;28;91438;-91
2021/08/12 00:36:20;;;;;;;;;;;24.60;93.20;24.50;99695.00;;;;345427;28;83347;-89
2021/08/12 00:36:32;;;;;;;;;;;24.60;93.30;24.40;99690.00;;;;346917;28;92747;-89
2021/08/12 00:36:43;;;;;;;;;;;24.60;93.30;24.40;99691.00;;;;337778;28;82470;-89
2021/08/12 00:36:55;;;;;;;;;;;24.50;93.30;24.40;99704.00;;;;347056;28;90396;-89
2021/08/12 00:37:07;;;;;;;;;;;24.50;93.30;24.40;99699.00;;;;346887;28;83472;-90
2021/08/12 00:37:19;;;;;;;;;;;24.50;93.30;24.50;99699.00;;;;338936;28;90513;-90
2021/08/12 00:37:31;;;;;;;;;;;24.50;93.30;24.40;99700.00;;;;337532;28;82530;-92
2021/08/12 00:37:43;;;;;;;;;;;24.50;93.30;24.50;99697.00;;;;344205;28;88421;-89
2021/08/12 00:37:55;;;;;;;;;;;24.50;93.10;24.50;99696.00;;;;344634;28;83497;-89
2021/08/12 00:38:07;;;;;;;;;;;24.50;93.10;24.50;99702.00;;;;344206;28;90348;-90
2021/08/12 00:38:19;;;;;;;;;;;24.50;93.20;24.40;99696.00;;;;344852;28;83459;-90
2021/08/12 00:38:31;;;;;;;;;;;24.50;93.30;24.40;99692.00;;;;342927;28;91831;-89
2021/08/12 00:38:43;;;;;;;;;;;24.50;93.40;24.30;99688.00;;;;336552;28;82466;-90
2021/08/12 00:38:55;;;;;;;;;;;24.50;93.40;24.40;99707.00;;;;336122;28;91333;-89
2021/08/12 00:39:06;;;;;;;;;;;24.50;93.30;24.30;99699.00;;;;338410;28;82748;-89
2021/08/12 00:39:18;;;;;;;;;;;24.50;93.40;24.30;99702.00;;;;338376;28;89765;-89
2021/08/12 00:39:30;;;;;;;;;;;24.50;93.50;24.30;99696.00;;;;346276;28;83414;-89
2021/08/12 00:39:42;;;;;;;;;;;24.50;93.50;24.30;99695.00;;;;345652;28;91332;-89
2021/08/12 00:39:54;;;;;;;;;;;24.50;93.60;24.40;99690.00;;;;339300;28;83393;-89
2021/08/12 00:40:06;;;;;;;;;;;24.50;93.50;24.40;99693.00;;;;337364;28;91580;-90
2021/08/12 00:40:18;;;;;;;;;;;24.50;93.40;24.40;99697.00;;;;337747;28;83537;-90
2021/08/12 00:40:30;;;;;;;;;;;24.50;93.30;24.40;99698.00;;;;337450;28;91392;-89
2021/08/12 00:40:42;;;;;;;;;;;24.50;93.60;24.50;99689.00;;;;336608;28;83433;-89
2021/08/12 00:40:54;;;;;;;;;;;24.50;93.30;24.40;99691.00;;;;344394;28;91893;-89
2021/08/12 00:41:06;;;;;;;;;;;24.50;93.50;24.60;99695.00;;;;337480;28;83522;-90
2021/08/12 00:41:17;;;;;;;;;;;24.50;93.50;24.60;99686.00;;;;344341;28;90590;-89
2021/08/12 00:41:35;;;;;;;;;;;24.50;93.50;24.60;99694.00;;;;344929;28;82470;-89
2021/08/12 00:41:47;;;;;;;;;;;24.50;93.50;24.60;99696.00;;;;338753;28;91887;-89
2021/08/12 00:41:59;;;;;;;;;;;24.50;93.60;24.50;99693.00;;;;346288;28;82439;-91
2021/08/12 00:42:11;;;;;;;;;;;24.50;93.60;24.60;99691.00;;;;345169;28;91469;-89
2021/08/12 00:42:23;;;;;;;;;;;24.50;93.50;24.60;99692.00;;;;346829;28;83568;-89
2021/08/12 00:42:34;;;;;;;;;;;24.50;93.70;24.60;99694.00;;;;344325;28;93171;-89
2021/08/12 00:42:46;;;;;;;;;;;24.50;93.50;24.60;99695.00;;;;337843;28;83524;-89
2021/08/12 00:42:59;;;;;;;;;;;24.50;93.40;24.60;99693.00;;;;346872;28;90611;-91
2021/08/12 00:43:11;;;;;;;;;;;24.50;93.40;24.60;99690.00;;;;343247;28;83541;-91
2021/08/12 00:43:23;;;;;;;;;;;24.50;93.50;24.60;99692.00;;;;337497;28;91291;-89
2021/08/12 00:43:35;;;;;;;;;;;24.50;93.30;24.60;99692.00;;;;339181;28;83447;-89
2021/08/12 00:43:47;;;;;;;;;;;24.50;93.30;24.60;99687.00;;;;337528;28;89833;-89
2021/08/12 00:43:59;;;;;;;;;;;24.50;93.40;24.40;99689.00;;;;344810;28;82447;-89
2021/08/12 00:44:10;;;;;;;;;;;24.50;93.60;24.50;99686.00;;;;345835;28;91243;-89
2021/08/12 00:44:22;;;;;;;;;;;24.50;93.70;24.40;99695.00;;;;336451;28;82624;-90
2021/08/12 00:44:34;;;;;;;;;;;24.50;93.70;24.40;99688.00;;;;342832;28;91107;-90
2021/08/12 00:44:46;;;;;;;;;;;24.50;93.80;24.30;99694.00;;;;346201;28;82502;-91
2021/08/12 00:44:58;;;;;;;;;;;24.50;93.80;24.30;99690.00;;;;345710;28;91324;-90
2021/08/12 00:45:10;;;;;;;;;;;24.50;93.70;24.30;99693.00;;;;345913;28;83597;-90
2021/08/12 00:45:21;;;;;;;;;;;24.50;93.70;24.40;99687.00;;;;338607;28;91866;-89
2021/08/12 00:45:33;;;;;;;;;;;24.50;93.80;24.40;99690.00;;;;339649;28;83315;-91
2021/08/12 00:45:45;;;;;;;;;;;24.50;93.70;24.40;99684.00;;;;345590;28;90227;-89
2021/08/12 00:45:57;;;;;;;;;;;24.40;93.50;24.40;99690.00;;;;344726;28;83420;-89
2021/08/12 00:46:11;;;;;;;;;;;24.40;93.40;24.40;99691.00;;;;343919;28;89443;-90
2021/08/12 00:46:23;;;;;;;;;;;24.50;93.60;24.30;99694.00;;;;337634;28;83303;-89
2021/08/12 00:46:35;;;;;;;;;;;24.50;93.70;24.30;99689.00;;;;338781;28;92004;-89
2021/08/12 00:46:47;;;;;;;;;;;24.40;93.70;24.30;99697.00;;;;344891;28;83362;-90
2021/08/12 00:46:59;;;;;;;;;;;24.50;93.80;24.30;99695.00;;;;345713;28;91618;-90
2021/08/12 00:47:10;;;;;;;;;;;24.40;93.90;24.30;99695.00;;;;345966;27;83464;-92
2021/08/12 00:47:22;;;;;;;;;;;24.40;93.80;24.40;99691.00;;;;344088;28;91700;-89
2021/08/12 00:47:34;;;;;;;;;;;24.40;93.70;24.40;99690.00;;;;340714;28;83520;-89
2021/08/12 00:47:46;;;;;;;;;;;24.40;93.60;24.40;99682.00;;;;342924;28;92000;-90
2021/08/12 00:47:58;;;;;;;;;;;24.40;93.60;24.40;99686.00;;;;343440;28;83370;-90
2021/08/12 00:48:09;;;;;;;;;;;24.40;93.50;24.40;99691.00;;;;341358;28;91543;-90
2021/08/12 00:48:21;;;;;;;;;;;24.40;93.60;24.30;99690.00;;;;346584;28;86538;-90
2021/08/12 00:48:33;;;;;;;;;;;24.40;93.80;24.40;99690.00;;;;345558;28;92826;-90
2021/08/12 00:48:45;;;;;;;;;;;24.40;93.70;24.40;99686.00;;;;339247;28;83464;-89
2021/08/12 00:48:57;;;;;;;;;;;24.40;93.60;24.40;99689.00;;;;337403;28;91461;-91
2021/08/12 00:49:09;;;;;;;;;;;24.40;93.50;24.40;99693.00;;;;338333;28;82440;-90
2021/08/12 00:49:20;;;;;;;;;;;24.40;93.50;24.40;99688.00;;;;342567;28;91573;-89
2021/08/12 00:49:37;;;;;;;;;;;24.40;93.40;24.40;99698.00;;;;346244;28;83290;-89
2021/08/12 00:49:49;;;;;;;;;;;24.40;93.40;24.40;99695.00;;;;338713;28;91688;-90
2021/08/12 00:50:01;;;;;;;;;;;24.40;93.50;24.40;99683.00;;;;344843;28;82432;-89
2021/08/12 00:50:12;;;;;;;;;;;24.40;93.60;24.40;99687.00;;;;345804;28;90738;-90
2021/08/12 00:50:24;;;;;;;;;;;24.40;93.70;24.30;99694.00;;;;339046;28;83607;-89
2021/08/12 00:50:36;;;;;;;;;;;24.40;93.70;24.30;99691.00;;;;345732;28;92637;-89
2021/08/12 00:50:48;;;;;;;;;;;24.40;93.80;24.30;99694.00;;;;343407;28;83400;-91
2021/08/12 00:51:00;;;;;;;;;;;24.40;93.70;24.30;99686.00;;;;337359;28;91794;-90
2021/08/12 00:51:11;;;;;;;;;;;24.40;93.70;24.30;99688.00;;;;346399;28;83503;-90
2021/08/12 00:51:24;;;;;;;;;;;24.40;93.50;24.40;99688.00;;;;345984;28;91279;-89
2021/08/12 00:51:35;;;;;;;;;;;24.40;93.50;24.40;99687.00;;;;338154;28;83435;-90
2021/08/12 00:51:47;;;;;;;;;;;24.40;93.60;24.40;99691.00;;;;344057;28;91796;-90
2021/08/12 00:52:00;;;;;;;;;;;24.40;93.60;24.50;99690.00;;;;344694;28;83548;-91
2021/08/12 00:52:12;;;;;;;;;;;24.40;93.90;24.40;99688.00;;;;337427;28;90637;-90
2021/08/12 00:52:23;;;;;;;;;;;24.40;93.70;24.40;99691.00;;;;339007;28;82668;-90
2021/08/12 00:52:35;;;;;;;;;;;24.40;93.70;24.40;99686.00;;;;337460;28;91516;-89
2021/08/12 00:52:47;;;;;;;;;;;24.40;93.70;24.30;99686.00;;;;339192;28;83433;-89
2021/08/12 00:53:00;;;;;;;;;;;24.40;93.90;24.30;99684.00;;;;338661;28;91404;-90
2021/08/12 00:53:11;;;;;;;;;;;24.40;93.80;24.30;99691.00;;;;337833;28;82448;-90
2021/08/12 00:53:23;;;;;;;;;;;24.40;93.90;24.30;99684.00;;;;337378;28;91845;-90
2021/08/12 00:53:35;;;;;;;;;;;24.30;93.80;24.30;99684.00;;;;337819;28;83403;-90
2021/08/12 00:53:47;;;;;;;;;;;24.30;93.80;24.30;99691.00;;;;337514;28;90600;-89
2021/08/12 00:53:59;;;;;;;;;;;24.30;94.00;24.30;99686.00;;;;337878;28;82517;-90
2021/08/12 00:54:11;;;;;;;;;;;24.30;94.10;24.30;99682.00;;;;338672;28;95994;-90
2021/08/12 00:54:23;;;;;;;;;;;24.30;93.80;24.30;99686.00;;;;338964;28;82592;-90
2021/08/12 00:54:37;;;;;;;;;;;24.30;93.70;24.40;99679.00;;;;339295;28;91594;-90
2021/08/12 00:54:48;;;;;;;;;;;24.30;93.70;24.40;99684.00;;;;339174;28;83370;-90
2021/08/12 00:55:00;;;;;;;;;;;24.30;93.70;24.30;99687.00;;;;337381;28;90495;-90
2021/08/12 00:55:12;;;;;;;;;;;24.30;93.90;24.30;99694.00;;;;344489;28;83494;-89
2021/08/12 00:55:24;;;;;;;;;;;24.30;94.00;24.30;99684.00;;;;335933;28;91917;-90
2021/08/12 00:55:36;;;;;;;;;;;24.30;93.90;24.30;99684.00;;;;338005;28;83497;-89
2021/08/12 00:55:48;;;;;;;;;;;24.30;93.80;24.30;99683.00;;;;337478;28;91317;-89
2021/08/12 00:56:01;;;;;;;;;;;24.30;93.70;24.30;99685.00;;;;336591;28;83355;-90
2021/08/12 00:56:12;;;;;;;;;;;24.30;93.70;24.30;99688.00;;;;345652;28;91424;-89
2021/08/12 00:56:26;;;;;;;;;;;24.30;93.70;24.40;99688.00;;;;338938;28;83629;-89
2021/08/12 00:56:37;;;;;;;;;;;24.30;93.70;24.40;99681.00;;;;344188;28;92110;-90
2021/08/12 00:56:49;;;;;;;;;;;24.30;93.70;24.30;99681.00;;;;346195;28;83395;-90
2021/08/12 00:57:04;;;;;;;;;;;24.30;94.00;24.30;99685.00;;;;342962;28;91420;-89
2021/08/12 00:57:16;;;;;;;;;;;24.30;94.10;24.30;99685.00;;;;343822;28;83533;-92
2021/08/12 00:57:28;;;;;;;;;;;24.30;93.90;24.30;99683.00;;;;341381;28;91311;-89
2021/08/12 00:57:40;;;;;;;;;;;24.30;94.00;24.30;99688.00;;;;344988;28;83577;-89
2021/08/12 00:57:52;;;;;;;;;;;24.30;93.70;24.30;99682.00;;;;344376;28;91715;-89
2021/08/12 00:58:04;;;;;;;;;;;24.30;93.80;24.30;99683.00;;;;344765;28;83339;-90
2021/08/12 00:58:16;;;;;;;;;;;24.30;93.80;24.30;99678.00;;;;342929;28;92208;-92
2021/08/12 00:58:27;;;;;;;;;;;24.30;93.80;24.30;99685.00;;;;336224;28;82538;-90
2021/08/12 00:58:39;;;;;;;;;;;24.30;93.80;24.30;99683.00;;;;336132;28;91173;-90
2021/08/12 00:58:52;;;;;;;;;;;24.30;94.30;24.30;99687.00;;;;346214;28;82513;-89
2021/08/12 00:59:04;;;;;;;;;;;24.30;94.20;24.30;99680.00;;;;344284;28;90407;-90
2021/08/12 00:59:16;;;;;;;;;;;24.30;94.00;24.40;99683.00;;;;343328;28;83488;-89
2021/08/12 00:59:31;;;;;;;;;;;24.30;93.90;24.30;99671.00;;;;344346;28;91574;-90
2021/08/12 00:59:43;;;;;;;;;;;24.30;93.90;24.30;99677.00;;;;337803;28;83434;-89